sensor_id;sensor_type;location;lat;lon;timestamp;pressure;altitude;pressure_sealevel;temperature;humidity
36258;BME280;22294;52.044;4.582;2023-02-19T00:00:58;77051.19;;;-144.37;100.00
36258;BME280;22294;52.044;4.582;2023-02-19T00:03:23;77053.25;;;-144.37;100.00
36258;BME280;22294;52.044;4.582;2023-02-19T00:05:49;77047.09;;;-144.37;100.00
36258;BME280;22294;52.044;4.582;2023-02-19T00:08:14;77045.06;;;-144.37;100.00
36258;BME280;22294;52.044;4.582;2023-02-19T00:10:39;77043.03;;;-144.37;100.00
36258;BME280;22294;52.044;4.582;2023-02-19T00:13:05;77040.97;;;-144.37;100.00
36258;BME280;22294;52.044;4.582;2023-02-19T00:15:33;77045.06;;;-144.37;100.00
36258;BME280;22294;52.044;4.582;2023-02-19T00:17:58;77040.97;;;-144.37;100.00
36258;BME280;22294;52.044;4.582;2023-02-19T00:20:23;77036.88;;;-144.37;100.00
36258;BME280;22294;52.044;4.582;2023-02-19T00:22:49;77038.94;;;-144.37;100.00
36258;BME280;22294;52.044;4.582;2023-02-19T00:25:14;77034.84;;;-144.37;100.00
36258;BME280;22294;52.044;4.582;2023-02-19T00:27:40;77032.78;;;-144.37;100.00
36258;BME280;22294;52.044;4.582;2023-02-19T00:30:05;77036.88;;;-144.37;100.00
36258;BME280;22294;52.044;4.582;2023-02-19T00:32:31;77034.84;;;-144.37;100.00
36258;BME280;22294;52.044;4.582;2023-02-19T00:34:56;77036.88;;;-144.37;100.00
36258;BME280;22294;52.044;4.582;2023-02-19T00:37:21;77034.84;;;-144.37;100.00
36258;BME280;22294;52.044;4.582;2023-02-19T00:39:47;77034.84;;;-144.37;100.00
36258;BME280;22294;52.044;4.582;2023-02-19T00:42:12;77043.03;;;-144.37;100.00
36258;BME280;22294;52.044;4.582;2023-02-19T00:44:37;77043.03;;;-144.37;100.00
36258;BME280;22294;52.044;4.582;2023-02-19T00:47:03;77038.94;;;-144.37;100.00
36258;BME280;22294;52.044;4.582;2023-02-19T00:49:28;77038.94;;;-144.37;100.00
36258;BME280;22294;52.044;4.582;2023-02-19T00:51:53;77034.84;;;-144.37;100.00
36258;BME280;22294;52.044;4.582;2023-02-19T00:54:19;77043.03;;;-144.37;100.00
36258;BME280;22294;52.044;4.582;2023-02-19T00:56:46;77036.88;;;-144.37;100.00
36258;BME280;22294;52.044;4.582;2023-02-19T00:59:12;77040.97;;;-144.37;100.00
36258;BME280;22294;52.044;4.582;2023-02-19T01:01:38;77043.03;;;-144.37;100.00
36258;BME280;22294;52.044;4.582;2023-02-19T01:04:04;77038.94;;;-144.37;100.00
36258;BME280;22294;52.044;4.582;2023-02-19T01:06:29;77038.94;;;-144.37;100.00
36258;BME280;22294;52.044;4.582;2023-02-19T01:08:57;77038.94;;;-144.37;100.00
36258;BME280;22294;52.044;4.582;2023-02-19T01:11:22;77047.09;;;-144.37;100.00
36258;BME280;22294;52.044;4.582;2023-02-19T01:13:47;77036.88;;;-144.37;100.00
36258;BME280;22294;52.044;4.582;2023-02-19T01:16:18;77034.84;;;-144.37;100.00
36258;BME280;22294;52.044;4.582;2023-02-19T01:18:44;77036.88;;;-144.37;100.00
36258;BME280;22294;52.044;4.582;2023-02-19T01:21:15;77034.84;;;-144.37;100.00
36258;BME280;22294;52.044;4.582;2023-02-19T01:23:41;77040.97;;;-144.37;100.00
36258;BME280;22294;52.044;4.582;2023-02-19T01:26:10;77032.78;;;-144.37;100.00
36258;BME280;22294;52.044;4.582;2023-02-19T01:28:36;77045.06;;;-144.37;100.00
36258;BME280;22294;52.044;4.582;2023-02-19T01:31:03;77030.75;;;-144.37;100.00
36258;BME280;22294;52.044;4.582;2023-02-19T01:33:28;77034.84;;;-144.37;100.00
36258;BME280;22294;52.044;4.582;2023-02-19T01:35:54;77036.88;;;-144.37;100.00
36258;BME280;22294;52.044;4.582;2023-02-19T01:38:19;77036.88;;;-144.37;100.00
36258;BME280;22294;52.044;4.582;2023-02-19T01:40:44;77032.78;;;-144.37;100.00
36258;BME280;22294;52.044;4.582;2023-02-19T01:43:17;77034.84;;;-144.37;100.00
36258;BME280;22294;52.044;4.582;2023-02-19T01:45:44;77032.78;;;-144.37;100.00
36258;BME280;22294;52.044;4.582;2023-02-19T01:48:16;77036.88;;;-144.37;100.00
36258;BME280;22294;52.044;4.582;2023-02-19T01:50:47;77032.78;;;-144.37;100.00
36258;BME280;22294;52.044;4.582;2023-02-19T01:53:16;77040.97;;;-144.37;100.00
36258;BME280;22294;52.044;4.582;2023-02-19T01:55:45;77040.97;;;-144.37;100.00
36258;BME280;22294;52.044;4.582;2023-02-19T01:58:11;77040.97;;;-144.37;100.00
36258;BME280;22294;52.044;4.582;2023-02-19T02:00:36;77045.06;;;-144.37;100.00
36258;BME280;22294;52.044;4.582;2023-02-19T02:03:02;77049.16;;;-144.37;100.00
36258;BME280;22294;52.044;4.582;2023-02-19T02:05:36;77051.19;;;-144.37;100.00
36258;BME280;22294;52.044;4.582;2023-02-19T02:08:02;77053.25;;;-144.37;100.00
36258;BME280;22294;52.044;4.582;2023-02-19T02:10:46;77057.34;;;-144.37;100.00
36258;BME280;22294;52.044;4.582;2023-02-19T02:13:12;77065.53;;;-144.37;100.00
36258;BME280;22294;52.044;4.582;2023-02-19T02:19:06;77067.56;;;-144.37;100.00
36258;BME280;22294;52.044;4.582;2023-02-19T02:32:39;77067.56;;;-144.37;100.00
36258;BME280;22294;52.044;4.582;2023-02-19T02:35:22;77063.47;;;-144.37;100.00
36258;BME280;22294;52.044;4.582;2023-02-19T02:37:49;77057.34;;;-144.37;100.00
36258;BME280;22294;52.044;4.582;2023-02-19T02:40:17;77075.75;;;-144.37;100.00
36258;BME280;22294;52.044;4.582;2023-02-19T02:42:43;77079.84;;;-144.37;100.00
36258;BME280;22294;52.044;4.582;2023-02-19T02:50:36;77098.25;;;-144.37;100.00
36258;BME280;22294;52.044;4.582;2023-02-19T02:53:11;77106.44;;;-144.37;100.00
36258;BME280;22294;52.044;4.582;2023-02-19T02:55:57;77104.38;;;-144.37;100.00
36258;BME280;22294;52.044;4.582;2023-02-19T02:58:24;77100.28;;;-144.37;100.00
36258;BME280;22294;52.044;4.582;2023-02-19T03:00:57;77102.34;;;-144.37;100.00
36258;BME280;22294;52.044;4.582;2023-02-19T03:03:44;77100.28;;;-144.37;100.00
36258;BME280;22294;52.044;4.582;2023-02-19T03:06:14;77106.44;;;-144.37;100.00
36258;BME280;22294;52.044;4.582;2023-02-19T03:08:56;77100.28;;;-144.37;100.00
36258;BME280;22294;52.044;4.582;2023-02-19T03:11:22;77106.44;;;-144.37;100.00
36258;BME280;22294;52.044;4.582;2023-02-19T03:14:17;77110.53;;;-144.37;100.00
36258;BME280;22294;52.044;4.582;2023-02-19T03:17:16;77122.81;;;-144.37;100.00
36258;BME280;22294;52.044;4.582;2023-02-19T03:20:04;77124.84;;;-144.37;100.00
36258;BME280;22294;52.044;4.582;2023-02-19T03:22:33;77130.97;;;-144.37;100.00
36258;BME280;22294;52.044;4.582;2023-02-19T03:25:04;77133.03;;;-144.37;100.00
36258;BME280;22294;52.044;4.582;2023-02-19T03:27:51;77135.06;;;-144.37;100.00
36258;BME280;22294;52.044;4.582;2023-02-19T03:30:22;77137.13;;;-144.37;100.00
36258;BME280;22294;52.044;4.582;2023-02-19T03:32:56;77130.97;;;-144.37;100.00
36258;BME280;22294;52.044;4.582;2023-02-19T03:35:25;77139.16;;;-144.37;100.00
36258;BME280;22294;52.044;4.582;2023-02-19T03:41:15;77151.44;;;-144.37;100.00
36258;BME280;22294;52.044;4.582;2023-02-19T03:43:54;77143.25;;;-144.37;100.00
36258;BME280;22294;52.044;4.582;2023-02-19T03:46:44;77149.41;;;-144.37;100.00
36258;BME280;22294;52.044;4.582;2023-02-19T03:49:28;77165.75;;;-144.37;100.00
36258;BME280;22294;52.044;4.582;2023-02-19T03:52:44;77173.94;;;-144.37;100.00
36258;BME280;22294;52.044;4.582;2023-02-19T03:58:23;77182.13;;;-144.37;100.00
36258;BME280;22294;52.044;4.582;2023-02-19T04:00:56;77182.13;;;-144.37;100.00
36258;BME280;22294;52.044;4.582;2023-02-19T04:06:02;77182.13;;;-144.37;100.00
36258;BME280;22294;52.044;4.582;2023-02-19T04:08:32;77184.16;;;-144.37;100.00
36258;BME280;22294;52.044;4.582;2023-02-19T04:10:59;77182.13;;;-144.37;100.00
36258;BME280;22294;52.044;4.582;2023-02-19T04:13:31;77180.06;;;-144.37;100.00
36258;BME280;22294;52.044;4.582;2023-02-19T04:16:02;77175.97;;;-144.37;100.00
36258;BME280;22294;52.044;4.582;2023-02-19T04:18:35;77178.03;;;-144.37;100.00
36258;BME280;22294;52.044;4.582;2023-02-19T04:21:03;77186.22;;;-144.37;100.00
36258;BME280;22294;52.044;4.582;2023-02-19T04:23:35;77184.16;;;-144.37;100.00
36258;BME280;22294;52.044;4.582;2023-02-19T04:26:03;77188.25;;;-144.37;100.00
36258;BME280;22294;52.044;4.582;2023-02-19T04:28:29;77200.53;;;-144.37;100.00
36258;BME280;22294;52.044;4.582;2023-02-19T04:30:54;77206.66;;;-144.37;100.00
36258;BME280;22294;52.044;4.582;2023-02-19T04:33:19;77212.81;;;-144.37;100.00
36258;BME280;22294;52.044;4.582;2023-02-19T04:35:45;77218.94;;;-144.37;100.00
36258;BME280;22294;52.044;4.582;2023-02-19T04:38:10;77218.94;;;-144.37;100.00
36258;BME280;22294;52.044;4.582;2023-02-19T04:40:36;77229.19;;;-144.37;100.00
36258;BME280;22294;52.044;4.582;2023-02-19T04:43:01;77221.00;;;-144.37;100.00
36258;BME280;22294;52.044;4.582;2023-02-19T04:45:27;77233.25;;;-144.37;100.00
36258;BME280;22294;52.044;4.582;2023-02-19T04:47:52;77233.25;;;-144.37;100.00
36258;BME280;22294;52.044;4.582;2023-02-19T04:50:17;77237.34;;;-144.37;100.00
36258;BME280;22294;52.044;4.582;2023-02-19T04:52:42;77241.44;;;-144.37;100.00
36258;BME280;22294;52.044;4.582;2023-02-19T04:55:08;77241.44;;;-144.37;100.00
36258;BME280;22294;52.044;4.582;2023-02-19T04:57:36;77243.50;;;-144.37;100.00
36258;BME280;22294;52.044;4.582;2023-02-19T05:00:02;77251.69;;;-144.37;100.00
36258;BME280;22294;52.044;4.582;2023-02-19T05:02:28;77241.44;;;-144.37;100.00
36258;BME280;22294;52.044;4.582;2023-02-19T05:04:54;77270.09;;;-144.37;100.00
36258;BME280;22294;52.044;4.582;2023-02-19T05:07:19;77278.28;;;-144.37;100.00
36258;BME280;22294;52.044;4.582;2023-02-19T05:09:44;77284.41;;;-144.37;100.00
36258;BME280;22294;52.044;4.582;2023-02-19T05:12:10;77280.31;;;-144.37;100.00
36258;BME280;22294;52.044;4.582;2023-02-19T05:14:35;77292.59;;;-144.37;100.00
36258;BME280;22294;52.044;4.582;2023-02-19T05:17:01;77286.44;;;-144.37;100.00
36258;BME280;22294;52.044;4.582;2023-02-19T05:19:26;77306.91;;;-144.37;100.00
36258;BME280;22294;52.044;4.582;2023-02-19T05:21:51;77302.81;;;-144.37;100.00
36258;BME280;22294;52.044;4.582;2023-02-19T05:24:17;77311.00;;;-144.37;100.00
36258;BME280;22294;52.044;4.582;2023-02-19T05:26:42;77317.13;;;-144.37;100.00
36258;BME280;22294;52.044;4.582;2023-02-19T05:29:07;77308.97;;;-144.37;100.00
36258;BME280;22294;52.044;4.582;2023-02-19T05:31:36;77315.09;;;-144.37;100.00
36258;BME280;22294;52.044;4.582;2023-02-19T05:34:01;77302.81;;;-144.37;100.00
36258;BME280;22294;52.044;4.582;2023-02-19T05:36:27;77308.97;;;-144.37;100.00
36258;BME280;22294;52.044;4.582;2023-02-19T05:38:53;77298.72;;;-144.37;100.00
36258;BME280;22294;52.044;4.582;2023-02-19T05:41:24;77306.91;;;-144.37;100.00
36258;BME280;22294;52.044;4.582;2023-02-19T05:43:50;77298.72;;;-144.37;100.00
36258;BME280;22294;52.044;4.582;2023-02-19T05:46:18;77306.91;;;-144.37;100.00
36258;BME280;22294;52.044;4.582;2023-02-19T05:48:44;77313.03;;;-144.37;100.00
36258;BME280;22294;52.044;4.582;2023-02-19T05:51:12;77315.09;;;-144.37;100.00
36258;BME280;22294;52.044;4.582;2023-02-19T05:53:38;77315.09;;;-144.37;100.00
36258;BME280;22294;52.044;4.582;2023-02-19T05:56:04;77311.00;;;-144.37;100.00
36258;BME280;22294;52.044;4.582;2023-02-19T05:58:29;77323.28;;;-144.37;100.00
36258;BME280;22294;52.044;4.582;2023-02-19T06:00:55;77321.22;;;-144.37;100.00
36258;BME280;22294;52.044;4.582;2023-02-19T06:03:21;77329.41;;;-144.37;100.00
36258;BME280;22294;52.044;4.582;2023-02-19T06:05:47;77335.56;;;-144.37;100.00
36258;BME280;22294;52.044;4.582;2023-02-19T06:08:13;77341.69;;;-144.37;100.00
36258;BME280;22294;52.044;4.582;2023-02-19T06:10:39;77345.78;;;-144.37;100.00
36258;BME280;22294;52.044;4.582;2023-02-19T06:13:06;77362.16;;;-144.37;100.00
36258;BME280;22294;52.044;4.582;2023-02-19T06:15:33;77360.09;;;-144.37;100.00
36258;BME280;22294;52.044;4.582;2023-02-19T06:17:59;77349.88;;;-144.37;100.00
36258;BME280;22294;52.044;4.582;2023-02-19T06:20:25;77358.06;;;-144.37;100.00
36258;BME280;22294;52.044;4.582;2023-02-19T06:22:53;77366.25;;;-144.37;100.00
36258;BME280;22294;52.044;4.582;2023-02-19T06:25:18;77368.28;;;-144.37;100.00
36258;BME280;22294;52.044;4.582;2023-02-19T06:27:47;77374.41;;;-144.37;100.00
36258;BME280;22294;52.044;4.582;2023-02-19T06:30:12;77374.41;;;-144.37;100.00
36258;BME280;22294;52.044;4.582;2023-02-19T06:32:38;77362.16;;;-144.37;100.00
36258;BME280;22294;52.044;4.582;2023-02-19T06:35:03;77364.19;;;-144.37;100.00
36258;BME280;22294;52.044;4.582;2023-02-19T06:37:29;77372.38;;;-144.37;100.00
36258;BME280;22294;52.044;4.582;2023-02-19T06:39:55;77374.41;;;-144.37;100.00
36258;BME280;22294;52.044;4.582;2023-02-19T06:42:20;77388.75;;;-144.37;100.00
36258;BME280;22294;52.044;4.582;2023-02-19T06:44:45;77376.47;;;-144.37;100.00
36258;BME280;22294;52.044;4.582;2023-02-19T06:47:11;77384.66;;;-144.37;100.00
36258;BME280;22294;52.044;4.582;2023-02-19T06:49:38;77396.94;;;-144.37;100.00
36258;BME280;22294;52.044;4.582;2023-02-19T06:52:04;77401.00;;;-144.37;100.00
36258;BME280;22294;52.044;4.582;2023-02-19T06:54:29;77403.06;;;-144.37;100.00
36258;BME280;22294;52.044;4.582;2023-02-19T06:56:55;77401.00;;;-144.37;100.00
36258;BME280;22294;52.044;4.582;2023-02-19T06:59:23;77409.19;;;-144.37;100.00
36258;BME280;22294;52.044;4.582;2023-02-19T07:01:48;77413.28;;;-144.37;100.00
36258;BME280;22294;52.044;4.582;2023-02-19T07:04:13;77429.66;;;-144.37;100.00
36258;BME280;22294;52.044;4.582;2023-02-19T07:06:41;77433.75;;;-144.37;100.00
36258;BME280;22294;52.044;4.582;2023-02-19T07:09:08;77433.75;;;-144.37;100.00
36258;BME280;22294;52.044;4.582;2023-02-19T07:11:36;77443.97;;;-144.37;100.00
36258;BME280;22294;52.044;4.582;2023-02-19T07:14:03;77441.94;;;-144.37;100.00
36258;BME280;22294;52.044;4.582;2023-02-19T07:16:29;77458.28;;;-144.37;100.00
36258;BME280;22294;52.044;4.582;2023-02-19T07:18:56;77458.28;;;-144.37;100.00
36258;BME280;22294;52.044;4.582;2023-02-19T07:21:22;77470.56;;;-144.37;100.00
36258;BME280;22294;52.044;4.582;2023-02-19T07:23:48;77472.63;;;-144.37;100.00
36258;BME280;22294;52.044;4.582;2023-02-19T07:26:15;77484.91;;;-144.37;100.00
36258;BME280;22294;52.044;4.582;2023-02-19T07:28:44;77484.91;;;-144.37;100.00
36258;BME280;22294;52.044;4.582;2023-02-19T07:31:10;77495.13;;;-144.37;100.00
36258;BME280;22294;52.044;4.582;2023-02-19T07:33:36;77501.25;;;-144.37;100.00
36258;BME280;22294;52.044;4.582;2023-02-19T07:36:01;77519.66;;;-144.37;100.00
36258;BME280;22294;52.044;4.582;2023-02-19T07:38:27;77521.72;;;-144.37;100.00
36258;BME280;22294;52.044;4.582;2023-02-19T07:40:57;77536.03;;;-144.37;100.00
36258;BME280;22294;52.044;4.582;2023-02-19T07:43:23;77521.72;;;-144.37;100.00
36258;BME280;22294;52.044;4.582;2023-02-19T07:45:49;77531.94;;;-144.37;100.00
36258;BME280;22294;52.044;4.582;2023-02-19T07:48:14;77529.91;;;-144.37;100.00
36258;BME280;22294;52.044;4.582;2023-02-19T07:50:40;77542.19;;;-144.37;100.00
36258;BME280;22294;52.044;4.582;2023-02-19T07:53:05;77538.09;;;-144.37;100.00
36258;BME280;22294;52.044;4.582;2023-02-19T07:55:32;77548.31;;;-144.37;100.00
36258;BME280;22294;52.044;4.582;2023-02-19T07:57:58;77552.41;;;-144.37;100.00
36258;BME280;22294;52.044;4.582;2023-02-19T08:00:23;77560.59;;;-144.37;100.00
36258;BME280;22294;52.044;4.582;2023-02-19T08:02:50;77560.59;;;-144.37;100.00
36258;BME280;22294;52.044;4.582;2023-02-19T08:05:36;77570.81;;;-144.37;100.00
36258;BME280;22294;52.044;4.582;2023-02-19T08:08:05;77564.69;;;-144.37;100.00
36258;BME280;22294;52.044;4.582;2023-02-19T08:10:31;77564.69;;;-144.37;100.00
36258;BME280;22294;52.044;4.582;2023-02-19T08:13:16;77572.88;;;-144.37;100.00
36258;BME280;22294;52.044;4.582;2023-02-19T08:15:45;77581.06;;;-144.37;100.00
36258;BME280;22294;52.044;4.582;2023-02-19T08:18:13;77572.88;;;-144.37;100.00
36258;BME280;22294;52.044;4.582;2023-02-19T08:20:40;77574.91;;;-144.37;100.00
36258;BME280;22294;52.044;4.582;2023-02-19T08:23:06;77576.97;;;-144.37;100.00
36258;BME280;22294;52.044;4.582;2023-02-19T08:25:32;77585.13;;;-144.37;100.00
36258;BME280;22294;52.044;4.582;2023-02-19T08:27:58;77591.28;;;-144.37;100.00
36258;BME280;22294;52.044;4.582;2023-02-19T08:30:28;77587.19;;;-144.37;100.00
36258;BME280;22294;52.044;4.582;2023-02-19T08:32:54;77601.50;;;-144.37;100.00
36258;BME280;22294;52.044;4.582;2023-02-19T08:35:21;77591.28;;;-144.37;100.00
36258;BME280;22294;52.044;4.582;2023-02-19T08:37:46;77601.50;;;-144.37;100.00
36258;BME280;22294;52.044;4.582;2023-02-19T08:40:12;77589.22;;;-144.37;100.00
36258;BME280;22294;52.044;4.582;2023-02-19T08:42:37;77574.91;;;-144.37;100.00
36258;BME280;22294;52.044;4.582;2023-02-19T08:45:03;77576.97;;;-144.37;100.00
36258;BME280;22294;52.044;4.582;2023-02-19T08:47:29;77583.09;;;-144.37;100.00
36258;BME280;22294;52.044;4.582;2023-02-19T08:49:54;77572.88;;;-144.37;100.00
36258;BME280;22294;52.044;4.582;2023-02-19T08:52:19;77564.69;;;-144.37;100.00
36258;BME280;22294;52.044;4.582;2023-02-19T08:54:45;77556.50;;;-144.37;100.00
36258;BME280;22294;52.044;4.582;2023-02-19T08:57:10;77544.22;;;-144.37;100.00
36258;BME280;22294;52.044;4.582;2023-02-19T08:59:35;77544.22;;;-144.37;100.00
36258;BME280;22294;52.044;4.582;2023-02-19T09:02:01;77548.31;;;-144.37;100.00
36258;BME280;22294;52.044;4.582;2023-02-19T09:04:27;77556.50;;;-144.37;100.00
36258;BME280;22294;52.044;4.582;2023-02-19T09:06:53;77546.28;;;-144.37;100.00
36258;BME280;22294;52.044;4.582;2023-02-19T09:09:18;77552.41;;;-144.37;100.00
36258;BME280;22294;52.044;4.582;2023-02-19T09:11:44;77560.59;;;-144.37;100.00
36258;BME280;22294;52.044;4.582;2023-02-19T09:14:09;77552.41;;;-144.37;100.00
36258;BME280;22294;52.044;4.582;2023-02-19T09:16:35;77554.47;;;-144.37;100.00
36258;BME280;22294;52.044;4.582;2023-02-19T09:19:02;77554.47;;;-144.37;100.00
36258;BME280;22294;52.044;4.582;2023-02-19T09:21:27;77548.31;;;-144.37;100.00
36258;BME280;22294;52.044;4.582;2023-02-19T09:23:52;77558.53;;;-144.37;100.00
36258;BME280;22294;52.044;4.582;2023-02-19T09:26:18;77550.38;;;-144.37;100.00
36258;BME280;22294;52.044;4.582;2023-02-19T09:28:43;77550.38;;;-144.37;100.00
36258;BME280;22294;52.044;4.582;2023-02-19T09:31:11;77552.41;;;-144.37;100.00
36258;BME280;22294;52.044;4.582;2023-02-19T09:33:36;77554.47;;;-144.37;100.00
36258;BME280;22294;52.044;4.582;2023-02-19T09:36:03;77568.78;;;-144.37;100.00
36258;BME280;22294;52.044;4.582;2023-02-19T09:38:28;77560.59;;;-144.37;100.00
36258;BME280;22294;52.044;4.582;2023-02-19T09:41:05;77552.41;;;-144.37;100.00
36258;BME280;22294;52.044;4.582;2023-02-19T09:43:32;77556.50;;;-144.37;100.00
36258;BME280;22294;52.044;4.582;2023-02-19T09:46:02;77554.47;;;-144.37;100.00
36258;BME280;22294;52.044;4.582;2023-02-19T09:48:28;77554.47;;;-144.37;100.00
36258;BME280;22294;52.044;4.582;2023-02-19T09:50:54;77554.47;;;-144.37;100.00
36258;BME280;22294;52.044;4.582;2023-02-19T09:53:24;77564.69;;;-144.37;100.00
36258;BME280;22294;52.044;4.582;2023-02-19T09:55:51;77558.53;;;-144.37;100.00
36258;BME280;22294;52.044;4.582;2023-02-19T09:58:22;77572.88;;;-144.37;100.00
36258;BME280;22294;52.044;4.582;2023-02-19T10:00:52;77576.97;;;-144.37;100.00
36258;BME280;22294;52.044;4.582;2023-02-19T10:03:36;77595.38;;;-144.37;100.00
36258;BME280;22294;52.044;4.582;2023-02-19T10:06:10;77581.06;;;-144.37;100.00
36258;BME280;22294;52.044;4.582;2023-02-19T10:08:40;77591.28;;;-144.37;100.00
36258;BME280;22294;52.044;4.582;2023-02-19T10:11:05;77605.59;;;-144.37;100.00
36258;BME280;22294;52.044;4.582;2023-02-19T10:13:36;77603.56;;;-144.37;100.00
36258;BME280;22294;52.044;4.582;2023-02-19T10:16:11;77591.28;;;-144.37;100.00
36258;BME280;22294;52.044;4.582;2023-02-19T10:18:41;77587.19;;;-144.37;100.00
36258;BME280;22294;52.044;4.582;2023-02-19T10:21:13;77589.22;;;-144.37;100.00
36258;BME280;22294;52.044;4.582;2023-02-19T10:23:40;77601.50;;;-144.37;100.00
36258;BME280;22294;52.044;4.582;2023-02-19T10:26:05;77615.84;;;-144.37;100.00
36258;BME280;22294;52.044;4.582;2023-02-19T10:28:34;77626.06;;;-144.37;100.00
36258;BME280;22294;52.044;4.582;2023-02-19T10:31:03;77636.28;;;-144.37;100.00
36258;BME280;22294;52.044;4.582;2023-02-19T10:33:29;77644.47;;;-144.37;100.00
36258;BME280;22294;52.044;4.582;2023-02-19T10:35:59;77644.47;;;-144.37;100.00
36258;BME280;22294;52.044;4.582;2023-02-19T10:38:44;77656.75;;;-144.37;100.00
36258;BME280;22294;52.044;4.582;2023-02-19T10:41:18;77644.47;;;-144.37;100.00
36258;BME280;22294;52.044;4.582;2023-02-19T10:44:02;77640.38;;;-144.37;100.00
36258;BME280;22294;52.044;4.582;2023-02-19T10:46:32;77636.28;;;-144.37;100.00
36258;BME280;22294;52.044;4.582;2023-02-19T10:49:02;77646.53;;;-144.37;100.00
36258;BME280;22294;52.044;4.582;2023-02-19T10:51:34;77650.63;;;-144.37;100.00
36258;BME280;22294;52.044;4.582;2023-02-19T10:54:15;77648.56;;;-144.37;100.00
36258;BME280;22294;52.044;4.582;2023-02-19T10:56:40;77640.38;;;-144.37;100.00
36258;BME280;22294;52.044;4.582;2023-02-19T11:01:52;77613.78;;;-144.37;100.00
36258;BME280;22294;52.044;4.582;2023-02-19T11:04:18;77613.78;;;-144.37;100.00
36258;BME280;22294;52.044;4.582;2023-02-19T11:06:44;77599.47;;;-144.37;100.00
36258;BME280;22294;52.044;4.582;2023-02-19T11:09:31;77597.41;;;-144.37;100.00
36258;BME280;22294;52.044;4.582;2023-02-19T11:12:00;77605.59;;;-144.37;100.00
36258;BME280;22294;52.044;4.582;2023-02-19T11:14:29;77597.41;;;-144.37;100.00
36258;BME280;22294;52.044;4.582;2023-02-19T11:16:57;77597.41;;;-144.37;100.00
36258;BME280;22294;52.044;4.582;2023-02-19T11:22:02;77597.41;;;-144.37;100.00
36258;BME280;22294;52.044;4.582;2023-02-19T11:24:47;77599.47;;;-144.37;100.00
36258;BME280;22294;52.044;4.582;2023-02-19T11:27:18;77595.38;;;-144.37;100.00
36258;BME280;22294;52.044;4.582;2023-02-19T11:29:44;77605.59;;;-144.37;100.00
36258;BME280;22294;52.044;4.582;2023-02-19T11:34:45;77619.94;;;-144.37;100.00
36258;BME280;22294;52.044;4.582;2023-02-19T11:37:13;77624.00;;;-144.37;100.00
36258;BME280;22294;52.044;4.582;2023-02-19T11:39:41;77626.06;;;-144.37;100.00
36258;BME280;22294;52.044;4.582;2023-02-19T11:45:12;77619.94;;;-144.37;100.00
36258;BME280;22294;52.044;4.582;2023-02-19T12:01:35;77673.13;;;-144.37;100.00
36258;BME280;22294;52.044;4.582;2023-02-19T12:13:06;77669.03;;;-144.37;100.00
36258;BME280;22294;52.044;4.582;2023-02-19T12:23:47;77605.59;;;-144.37;100.00
36258;BME280;22294;52.044;4.582;2023-02-19T12:26:40;77591.28;;;-144.37;100.00
36258;BME280;22294;52.044;4.582;2023-02-19T12:29:19;77595.38;;;-144.37;100.00
36258;BME280;22294;52.044;4.582;2023-02-19T12:32:01;77613.78;;;-144.37;100.00
36258;BME280;22294;52.044;4.582;2023-02-19T12:43:14;77640.38;;;-144.37;100.00
36258;BME280;22294;52.044;4.582;2023-02-19T12:45:54;77632.19;;;-144.37;98.71
36258;BME280;22294;52.044;4.582;2023-02-19T12:51:05;77636.28;;;-144.37;98.81
36258;BME280;22294;52.044;4.582;2023-02-19T12:53:38;77634.25;;;-144.37;100.00
36258;BME280;22294;52.044;4.582;2023-02-19T12:56:10;77621.97;;;-144.37;99.16
36258;BME280;22294;52.044;4.582;2023-02-19T12:58:42;77660.84;;;-144.37;98.77
36258;BME280;22294;52.044;4.582;2023-02-19T13:01:20;77697.66;;;-144.37;100.00
36258;BME280;22294;52.044;4.582;2023-02-19T13:03:52;77730.41;;;-144.37;100.00
36258;BME280;22294;52.044;4.582;2023-02-19T13:06:44;77734.50;;;-144.37;100.00
36258;BME280;22294;52.044;4.582;2023-02-19T13:09:17;77736.53;;;-144.37;100.00
36258;BME280;22294;52.044;4.582;2023-02-19T13:11:59;77740.63;;;-144.37;100.00
36258;BME280;22294;52.044;4.582;2023-02-19T13:14:35;77769.28;;;-144.37;100.00
36258;BME280;22294;52.044;4.582;2023-02-19T13:19:51;77748.81;;;-144.37;100.00
36258;BME280;22294;52.044;4.582;2023-02-19T13:22:26;77732.44;;;-144.37;100.00
36258;BME280;22294;52.044;4.582;2023-02-19T13:25:13;77722.22;;;-144.37;99.20
36258;BME280;22294;52.044;4.582;2023-02-19T13:30:27;77736.53;;;-144.37;98.98
36258;BME280;22294;52.044;4.582;2023-02-19T13:32:58;77730.41;;;-144.37;99.67
36258;BME280;22294;52.044;4.582;2023-02-19T13:36:27;77724.25;;;-144.37;98.16
36258;BME280;22294;52.044;4.582;2023-02-19T13:38:39;77744.72;;;-144.37;97.86
36258;BME280;22294;52.044;4.582;2023-02-19T13:41:06;77754.97;;;-144.37;98.95
36258;BME280;22294;52.044;4.582;2023-02-19T13:43:41;77744.72;;;-144.37;97.82
36258;BME280;22294;52.044;4.582;2023-02-19T13:46:09;77740.63;;;-144.37;97.58
36258;BME280;22294;52.044;4.582;2023-02-19T13:48:40;77765.19;;;-144.37;98.29
36258;BME280;22294;52.044;4.582;2023-02-19T13:53:59;77763.13;;;-144.37;98.53
36258;BME280;22294;52.044;4.582;2023-02-19T13:59:22;77763.13;;;-144.37;94.86
36258;BME280;22294;52.044;4.582;2023-02-19T14:14:50;77806.09;;;-144.37;96.91
36258;BME280;22294;52.044;4.582;2023-02-19T14:30:26;77775.41;;;-144.37;97.14
36258;BME280;22294;52.044;4.582;2023-02-19T14:32:52;77783.59;;;-144.37;96.53
36258;BME280;22294;52.044;4.582;2023-02-19T14:35:19;77777.47;;;-144.37;98.11
36258;BME280;22294;52.044;4.582;2023-02-19T14:37:45;77810.19;;;-144.37;96.49
36258;BME280;22294;52.044;4.582;2023-02-19T14:40:36;77836.78;;;-144.37;97.73